Time;durP1;ratioP1;P1;durP2;ratioP2;P2;SDS_P1;SDS_P2;PMS_P1;PMS_P2;Temp;Humidity;BMP_temperature;BMP_pressure;BME280_temperature;BME280_humidity;BME280_pressure;Samples;Min_cycle;Max_cycle;Signal;HPM_P1;HPM_P2
2023/08/30 00:02:13;;;;;;;11.02;7.60;;;;;;;24.08;100.00;99556.06;5116831;27;20031;-76
2023/08/30 00:04:38;;;;;;;11.30;7.22;;;;;;;23.92;100.00;99517.63;5135212;27;20477;-76
2023/08/30 00:07:03;;;;;;;10.77;7.38;;;;;;;24.38;100.00;99548.06;5116712;27;20123;-76
2023/08/30 00:09:29;;;;;;;12.63;7.50;;;;;;;23.70;100.00;99491.13;5134109;27;20498;-76
2023/08/30 00:11:54;;;;;;;12.07;7.70;;;;;;;23.72;100.00;99495.22;5134340;27;20032;-74
2023/08/30 00:14:20;;;;;;;9.20;7.38;;;;;;;23.62;100.00;99476.25;5134320;27;20035;-76
2023/08/30 00:16:45;;;;;;;9.70;7.85;;;;;;;23.85;100.00;99534.72;5134794;27;20449;-76
2023/08/30 00:19:10;;;;;;;11.00;7.25;;;;;;;23.80;100.00;99518.72;5134520;27;20027;-75
2023/08/30 00:21:36;;;;;;;11.35;7.93;;;;;;;23.60;100.00;99467.78;5134124;27;20039;-75
2023/08/30 00:24:01;;;;;;;11.93;7.78;;;;;;;23.68;100.00;99461.88;5116151;27;20378;-75
2023/08/30 00:26:27;;;;;;;11.05;7.50;;;;;;;23.64;100.00;99458.75;5133967;27;20536;-75
2023/08/30 00:28:52;;;;;;;12.43;8.02;;;;;;;23.60;100.00;99459.16;5115905;27;20035;-75
2023/08/30 00:31:17;;;;;;;10.85;8.18;;;;;;;23.98;100.00;99511.88;5134191;27;20189;-72
2023/08/30 00:33:43;;;;;;;9.07;7.68;;;;;;;;;;5134681;27;20035;-76
2023/08/30 00:36:09;;;;;;;9.68;7.65;;;;;;;24.08;100.00;99484.13;5116326;27;20027;-77
2023/08/30 00:38:34;;;;;;;11.40;8.63;;;;;;;23.83;100.00;99494.25;5115768;27;20061;-77
2023/08/30 00:41:00;;;;;;;10.15;7.80;;;;;;;23.81;100.00;99486.59;5134486;27;20069;-77
2023/08/30 00:43:25;;;;;;;9.90;8.52;;;;;;;23.88;100.00;99477.31;5115853;27;20031;-76
2023/08/30 00:45:51;;;;;;;11.10;7.72;;;;;;;23.67;100.00;99416.91;5133800;27;20019;-76
2023/08/30 00:48:19;;;;;;;11.25;7.63;;;;;;;23.35;100.00;99413.84;5134415;27;20031;-76
2023/08/30 00:50:45;;;;;;;10.70;7.47;;;;;;;23.76;100.00;99465.44;5133905;27;20057;-76
2023/08/30 00:53:12;;;;;;;9.32;7.70;;;;;;;23.74;100.00;99461.31;5134116;27;20044;-77
2023/08/30 00:55:37;;;;;;;10.50;7.90;;;;;;;23.52;100.00;99407.09;5133534;27;20031;-77
2023/08/30 00:58:03;;;;;;;10.32;8.25;;;;;;;23.68;100.00;99396.97;5133903;27;20550;-76
2023/08/30 01:00:33;;;;;;;14.20;8.43;;;;;;;23.92;100.00;99436.28;5133597;27;20466;-74
2023/08/30 01:02:59;;;;;;;10.13;8.07;;;;;;;23.55;100.00;99360.13;5133347;27;20039;-75
2023/08/30 01:05:24;;;;;;;9.60;7.80;;;;;;;23.31;100.00;99365.75;5115373;27;20027;-75
2023/08/30 01:07:51;;;;;;;11.07;8.55;;;;;;;23.28;100.00;99355.63;5133899;27;20053;-74
2023/08/30 01:10:18;;;;;;;9.85;7.97;;;;;;;23.91;100.00;99391.31;5114845;27;20107;-78
2023/08/30 01:12:48;;;;;;;12.90;8.10;;;;;;;23.78;100.00;99361.41;5133412;27;20027;-74
2023/08/30 01:15:22;;;;;;;12.85;8.10;;;;;;;23.53;100.00;99336.09;5115562;27;20039;-76
2023/08/30 01:17:51;;;;;;;9.50;8.27;;;;;;;23.67;100.00;99359.81;5133481;27;20084;-76
2023/08/30 01:20:19;;;;;;;12.10;9.38;;;;;;;23.21;100.00;99346.75;5133330;27;20035;-76
2023/08/30 01:23:02;;;;;;;11.18;9.02;;;;;;;23.32;100.00;99390.75;5132969;27;20029;-76
2023/08/30 01:25:43;;;;;;;11.38;9.20;;;;;;;23.25;100.00;99356.69;5133300;27;20038;-75
2023/08/30 01:28:09;;;;;;;13.75;9.20;;;;;;;22.96;100.00;99290.25;5133437;27;20386;-75
2023/08/30 01:30:37;;;;;;;9.38;8.32;;;;;;;22.86;100.00;99289.44;5132928;27;20054;-75
2023/08/30 01:33:04;;;;;;;9.52;8.48;;;;;;;23.07;100.00;99290.13;5132939;27;20027;-75
2023/08/30 01:35:32;;;;;;;10.68;8.63;;;;;;;23.17;100.00;99311.69;5132919;27;20034;-76
2023/08/30 01:37:59;;;;;;;13.00;8.68;;;;;;;22.90;100.00;99263.09;5132793;27;20034;-75
2023/08/30 01:40:30;;;;;;;9.85;8.85;;;;;;;22.71;100.00;99220.81;5114923;27;20027;-76
2023/08/30 01:42:57;;;;;;;13.18;9.23;;;;;;;23.10;100.00;99295.00;5114826;27;20188;-77
2023/08/30 01:45:24;;;;;;;12.18;9.20;;;;;;;22.88;100.00;99223.53;5132851;27;20027;-75
2023/08/30 01:47:52;;;;;;;11.40;9.23;;;;;;;23.29;100.00;99275.03;5114296;27;20031;-76
2023/08/30 01:50:19;;;;;;;10.50;9.00;;;;;;;23.12;100.00;99275.78;5132611;27;20416;-75
2023/08/30 01:52:46;;;;;;;10.18;8.77;;;;;;;23.40;100.00;99262.88;5132781;27;20051;-76
2023/08/30 01:55:14;;;;;;;12.65;9.30;;;;;;;23.22;100.00;99262.78;5132408;27;20027;-76
2023/08/30 01:57:39;;;;;;;11.85;9.25;;;;;;;23.01;100.00;99262.97;5132436;27;20126;-75
2023/08/30 02:00:07;;;;;;;10.90;9.80;;;;;;;22.87;100.00;99183.00;5132043;27;20114;-76
2023/08/30 02:02:33;;;;;;;14.70;9.48;;;;;;;23.19;100.00;99162.69;5114454;28;20469;-76
2023/08/30 02:04:58;;;;;;;11.25;9.27;;;;;;;23.15;100.00;99160.56;5114279;28;20034;-75
2023/08/30 02:07:30;;;;;;;10.23;9.23;;;;;;;23.60;100.00;99231.53;5133064;28;20019;-75
2023/08/30 02:10:00;;;;;;;;;;;;;;;23.70;100.00;99208.94;5133189;28;20057;-70
2023/08/30 02:12:32;;;;;;;11.45;9.10;;;;;;;23.50;100.00;99217.78;5132706;28;19911;-76
2023/08/30 02:14:58;;;;;;;11.13;8.98;;;;;;;23.43;100.00;99195.97;5114204;28;20039;-73
2023/08/30 02:17:24;;;;;;;14.00;9.10;;;;;;;23.04;100.00;99133.00;5132823;28;20457;-74
2023/08/30 02:19:53;;;;;;;12.60;9.48;;;;;;;22.85;100.00;99114.09;5132615;28;20034;-75
2023/08/30 02:22:18;;;;;;;13.48;9.38;;;;;;;23.01;100.00;99101.34;5132832;28;20401;-76
2023/08/30 02:24:43;;;;;;;13.43;9.60;;;;;;;23.16;100.00;99113.72;5132315;28;20027;-76
2023/08/30 02:27:09;;;;;;;12.05;9.60;;;;;;;23.33;100.00;99122.53;5114063;28;20023;-76
2023/08/30 02:29:34;;;;;;;12.18;10.00;;;;;;;23.16;100.00;99098.16;5132418;28;20035;-75
2023/08/30 02:32:00;;;;;;;17.05;10.02;;;;;;;23.23;100.00;99098.41;5132956;27;20027;-76
2023/08/30 02:34:25;;;;;;;11.73;10.45;;;;;;;22.96;100.00;99025.75;5136326;27;20027;-75
2023/08/30 02:36:50;;;;;;;11.52;10.07;;;;;;;22.77;100.00;99036.22;5117633;27;20535;-74
2023/08/30 02:39:16;;;;;;;11.27;9.32;;;;;;;22.91;100.00;99057.31;5117109;27;20556;-74
2023/08/30 02:41:41;;;;;;;12.82;10.27;;;;;;;23.00;100.00;99069.41;5136270;27;20027;-75
2023/08/30 02:44:13;;;;;;;11.68;9.52;;;;;;;22.50;100.00;98986.94;5136044;27;20076;-75
2023/08/30 02:46:38;;;;;;;13.13;9.77;;;;;;;22.96;100.00;99082.81;5133252;27;20030;-74
2023/08/30 02:49:04;;;;;;;11.80;9.30;;;;;;;22.55;100.00;99008.03;5136046;27;20043;-74
2023/08/30 02:51:30;;;;;;;10.75;9.48;;;;;;;23.08;100.00;99046.19;5135900;27;20057;-76
2023/08/30 02:53:55;;;;;;;12.98;9.77;;;;;;;22.75;100.00;99001.84;5136421;27;20043;-75
2023/08/30 02:56:21;;;;;;;13.02;9.57;;;;;;;22.93;100.00;99068.38;5136090;27;20055;-75
2023/08/30 02:58:46;;;;;;;14.35;9.93;;;;;;;23.11;100.00;99058.03;5135802;27;20386;-72
2023/08/30 03:01:12;;;;;;;10.73;9.65;;;;;;;22.64;100.00;98983.91;5143706;27;20027;-72
2023/08/30 03:03:37;;;;;;;13.52;10.40;;;;;;;22.71;100.00;98969.41;5145938;27;20409;-73
2023/08/30 03:06:02;;;;;;;16.95;10.38;;;;;;;22.48;100.00;98983.66;5135987;27;20485;-75
2023/08/30 03:08:28;;;;;;;14.80;10.85;;;;;;;22.43;100.00;98976.31;5135520;27;20494;-74
2023/08/30 03:10:54;;;;;;;13.45;10.20;;;;;;;22.68;100.00;99031.91;5135431;27;20060;-75
2023/08/30 03:13:19;;;;;;;13.27;10.27;;;;;;;22.77;100.00;99042.25;5135053;27;20497;-75
2023/08/30 03:15:44;;;;;;;16.38;11.02;;;;;;;22.72;100.00;99062.56;5135228;27;20386;-74
2023/08/30 03:18:10;;;;;;;13.77;10.95;;;;;;;22.59;100.00;99009.44;5135548;27;20027;-75
2023/08/30 03:20:35;;;;;;;16.38;10.70;;;;;;;22.75;100.00;99074.44;5135521;27;20037;-79
2023/08/30 03:23:01;;;;;;;18.33;11.23;;;;;;;22.44;100.00;99022.81;5116782;27;20053;-75
2023/08/30 03:25:30;;;;;;;16.63;10.82;;;;;;;22.81;100.00;99079.06;5107953;28;20038;-75
2023/08/30 03:27:55;;;;;;;13.77;10.32;;;;;;;23.07;100.00;99074.84;5116138;27;20028;-74
2023/08/30 03:30:21;;;;;;;16.30;10.52;;;;;;;22.55;100.00;99015.81;5132620;27;20215;-71
2023/08/30 03:32:46;;;;;;;13.23;11.15;;;;;;;22.59;100.00;99014.59;5141910;27;20027;-76
2023/08/30 03:35:12;;;;;;;15.85;11.10;;;;;;;22.65;100.00;99012.28;5134788;27;20030;-77
2023/08/30 03:37:37;;;;;;;15.73;11.15;;;;;;;22.95;100.00;99071.63;5134963;27;20023;-77
2023/08/30 03:40:04;;;;;;;12.70;11.13;;;;;;;22.78;100.00;99019.72;5135048;27;20027;-72
2023/08/30 03:42:30;;;;;;;14.60;10.93;;;;;;;22.93;100.00;99068.38;5135352;27;20550;-79
2023/08/30 03:44:55;;;;;;;15.02;11.52;;;;;;;22.48;100.00;99015.59;5134557;27;20019;-75
2023/08/30 03:47:21;;;;;;;13.00;11.63;;;;;;;22.58;100.00;99042.28;5135203;27;20114;-79
2023/08/30 03:49:46;;;;;;;15.45;11.13;;;;;;;22.51;100.00;99032.59;5134837;27;20080;-77
2023/08/30 03:52:12;;;;;;;17.10;11.43;;;;;;;22.57;100.00;99060.53;5132947;27;20075;-76
2023/08/30 03:54:38;;;;;;;22.75;12.27;;;;;;;22.22;100.00;99081.91;5110663;27;20046;-75
2023/08/30 03:57:04;;;;;;;15.25;11.38;;;;;;;22.60;100.00;99143.25;5134587;27;20118;-72
2023/08/30 03:59:29;;;;;;;12.52;10.80;;;;;;;22.99;100.00;99166.34;5115103;27;20471;-76
2023/08/30 04:01:54;;;;;;;14.85;11.85;;;;;;;22.64;100.00;99154.97;5134441;27;20023;-76
2023/08/30 04:04:20;;;;;;;16.65;12.35;;;;;;;21.94;100.00;99106.84;5134733;27;20442;-77
2023/08/30 04:06:45;;;;;;;13.07;10.50;;;;;;;23.51;100.00;99211.63;5115994;27;20080;-80
2023/08/30 04:09:11;;;;;;;13.73;12.30;;;;;;;23.21;100.00;99230.81;5116243;27;20027;-76
2023/08/30 04:11:36;;;;;;;13.82;12.50;;;;;;;22.40;100.00;99200.22;5134156;27;20027;-77
2023/08/30 04:14:02;;;;;;;14.13;12.20;;;;;;;22.83;100.00;99162.69;5134197;27;20423;-79
2023/08/30 04:16:27;;;;;;;13.15;11.75;;;;;;;22.78;100.00;99229.72;5129486;27;20062;-76
2023/08/30 04:18:53;;;;;;;17.25;11.93;;;;;;;23.19;100.00;99244.91;5133541;27;20035;-77
2023/08/30 04:21:19;;;;;;;15.95;12.13;;;;;;;22.96;100.00;99253.94;5151430;27;20167;-76
2023/08/30 04:23:44;;;;;;;14.02;12.63;;;;;;;22.54;100.00;99203.34;5154588;27;20517;-79
2023/08/30 04:26:10;;;;;;;15.32;12.07;;;;;;;23.02;100.00;99268.94;5155114;27;20090;-76
2023/08/30 04:28:35;;;;;;;15.48;11.75;;;;;;;22.54;100.00;99204.16;5136795;27;20026;-80
2023/08/30 04:31:00;;;;;;;15.27;12.75;;;;;;;23.01;100.00;99288.06;5138244;27;20027;-75
2023/08/30 04:33:26;;;;;;;12.93;11.35;;;;;;;22.94;100.00;99254.09;5134081;27;20505;-76
2023/08/30 04:35:55;;;;;;;19.70;11.45;;;;;;;23.26;100.00;99248.56;5127527;27;20066;-74
2023/08/30 04:38:21;;;;;;;16.88;11.18;;;;;;;23.56;100.00;99315.84;5112904;27;20145;-75
2023/08/30 04:40:47;;;;;;;16.45;12.35;;;;;;;23.62;100.00;99324.84;5133423;27;20031;-74
2023/08/30 04:43:13;;;;;;;17.77;11.55;;;;;;;23.73;100.00;99264.97;5132423;27;20035;-76
2023/08/30 04:45:39;;;;;;;19.17;12.52;;;;;;;24.33;100.00;99307.72;5114844;27;20042;-76
2023/08/30 04:48:04;;;;;;;15.25;11.93;;;;;;;23.93;100.00;99243.13;5115351;27;20023;-77
2023/08/30 04:50:30;;;;;;;16.40;12.32;;;;;;;23.81;100.00;99322.19;5133089;27;20062;-78
2023/08/30 04:52:56;;;;;;;15.50;12.15;;;;;;;23.34;100.00;99287.63;5110440;28;20436;-77
2023/08/30 04:55:23;;;;;;;17.33;12.40;;;;;;;23.80;100.00;99478.94;5110557;28;20031;-77
2023/08/30 04:57:49;;;;;;;13.45;11.75;;;;;;;24.08;100.00;99554.28;5111440;28;20062;-76
2023/08/30 05:00:14;;;;;;;14.13;12.65;;;;;;;23.71;100.00;99464.22;5112105;28;20058;-75
2023/08/30 05:02:43;;;;;;;17.30;12.35;;;;;;;24.32;100.00;99602.38;5112841;28;20034;-78
2023/08/30 05:05:08;;;;;;;14.75;12.27;;;;;;;24.33;100.00;99580.63;5113209;28;20031;-71
2023/08/30 05:07:34;;;;;;;14.27;12.25;;;;;;;24.58;100.00;99624.25;5108151;28;20023;-76
2023/08/30 05:09:59;;;;;;;13.20;11.63;;;;;;;24.64;100.00;99601.06;5112254;28;20055;-79
2023/08/30 05:12:25;;;;;;;13.63;11.80;;;;;;;24.74;100.00;99543.88;5112445;28;20032;-78
2023/08/30 05:14:50;;;;;;;14.05;10.93;;;;;;;24.77;100.00;99486.34;5112581;28;20506;-78
2023/08/30 05:17:17;;;;;;;17.85;12.93;;;;;;;24.38;100.00;99474.47;5108071;28;20027;-78
2023/08/30 05:19:43;;;;;;;19.75;13.15;;;;;;;24.57;100.00;99483.00;5119348;28;20027;-76
2023/08/30 05:22:08;;;;;;;12.75;11.13;;;;;;;24.90;100.00;99642.91;5117031;28;20035;-76
2023/08/30 05:24:33;;;;;;;15.10;11.77;;;;;;;24.43;100.00;99600.44;5115082;28;20019;-76
2023/08/30 05:26:59;;;;;;;15.70;11.40;;;;;;;25.26;100.00;99699.38;5113272;28;20383;-78
2023/08/30 05:29:24;;;;;;;12.65;11.48;;;;;;;25.52;100.00;99655.28;5106872;28;20027;-75
2023/08/30 05:31:50;;;;;;;14.73;12.20;;;;;;;24.90;100.00;99559.66;5111715;28;20024;-76
2023/08/30 05:34:15;;;;;;;13.13;11.73;;;;;;;25.35;100.00;99620.41;5112685;28;20042;-76
2023/08/30 05:36:41;;;;;;;13.38;11.52;;;;;;;25.79;100.00;99538.84;5113016;28;20046;-71
2023/08/30 05:39:06;;;;;;;13.40;10.65;;;;;;;26.09;100.00;99409.09;5112570;28;20075;-76
2023/08/30 05:41:31;;;;;;;15.55;10.95;;;;;;;26.12;100.00;99390.56;5111884;28;20066;-76
2023/08/30 05:43:57;;;;;;;13.95;11.32;;;;;;;26.31;100.00;99345.97;5112613;28;20110;-77
2023/08/30 05:46:23;;;;;;;15.82;11.20;;;;;;;26.00;100.00;99335.25;5112731;28;20023;-75
2023/08/30 05:48:49;;;;;;;13.20;11.85;;;;;;;25.47;100.00;99288.56;5112344;28;20028;-76
2023/08/30 05:51:14;;;;;;;13.10;11.43;;;;;;;25.81;100.00;99298.22;5105678;28;20032;-78
2023/08/30 05:53:40;;;;;;;12.85;11.63;;;;;;;25.50;100.00;99344.75;5130959;27;20043;-76
2023/08/30 05:56:05;;;;;;;15.70;11.88;;;;;;;26.14;100.00;99347.72;5133175;27;20030;-77
2023/08/30 05:58:31;;;;;;;14.52;12.75;;;;;;;26.24;100.00;99356.25;5114695;27;20087;-75
2023/08/30 06:00:57;;;;;;;18.38;12.05;;;;;;;25.58;100.00;99303.94;5133107;27;20032;-77
2023/08/30 06:03:22;;;;;;;14.00;12.13;;;;;;;25.98;100.00;99318.13;5132954;28;20035;-77
2023/08/30 06:05:48;;;;;;;16.40;11.93;;;;;;;25.51;100.00;99261.25;5114970;28;20515;-77
2023/08/30 06:08:14;;;;;;;15.63;11.77;;;;;;;26.75;100.00;99326.56;5114518;28;20027;-75
2023/08/30 06:10:40;;;;;;;16.05;12.63;;;;;;;26.79;100.00;99228.72;5115087;28;20019;-78
2023/08/30 06:13:05;;;;;;;15.40;11.95;;;;;;;26.75;100.00;99203.09;5132368;28;20453;-77
2023/08/30 06:15:31;;;;;;;14.80;11.30;;;;;;;26.84;100.00;99231.63;5132810;28;20093;-78
2023/08/30 06:17:56;;;;;;;14.93;12.50;;;;;;;26.73;100.00;99171.97;5133383;28;20041;-78
2023/08/30 06:20:22;;;;;;;14.15;11.30;;;;;;;26.77;100.00;99238.50;5132824;28;20122;-78
2023/08/30 06:22:47;;;;;;;17.38;11.02;;;;;;;27.11;100.00;99199.97;5153696;28;20065;-76
2023/08/30 06:25:12;;;;;;;13.25;11.55;;;;;;;26.78;100.00;99228.88;5151603;28;20051;-78
2023/08/30 06:27:42;;;;;;;14.77;11.02;;;;;;;27.18;100.00;99168.75;5114345;28;20023;-77
2023/08/30 06:30:09;;;;;;;16.60;10.55;;;;;;;27.51;100.00;99245.25;5114606;28;20042;-76
2023/08/30 06:32:34;;;;;;;13.93;11.65;;;;;;;27.47;100.00;99194.34;5132770;28;20019;-76
2023/08/30 06:35:00;;;;;;;12.35;10.70;;;;;;;26.89;100.00;99225.94;5132528;28;20035;-77
2023/08/30 06:37:26;;;;;;;13.00;11.10;;;;;;;27.59;100.00;99277.41;5132915;28;20027;-76
2023/08/30 06:39:51;;;;;;;13.00;10.82;;;;;;;27.52;100.00;99262.53;5132669;28;20038;-76
2023/08/30 06:42:17;;;;;;;12.82;10.73;;;;;;;27.63;100.00;99233.44;5132742;28;20389;-75
2023/08/30 06:44:42;;;;;;;14.35;11.70;;;;;;;28.02;100.00;99242.94;5114590;28;20122;-77
2023/08/30 06:47:08;;;;;;;14.15;10.85;;;;;;;28.36;100.00;99296.69;5132563;28;20102;-77
2023/08/30 06:49:33;;;;;;;19.88;11.95;;;;;;;28.59;100.00;99314.06;5114837;28;20035;-77
2023/08/30 06:52:03;;;;;;;15.05;10.70;;;;;;;28.73;100.00;99328.19;5132350;28;20043;-78
2023/08/30 06:54:30;;;;;;;15.73;10.63;;;;;;;28.45;100.00;99285.97;5132816;28;20070;-77
2023/08/30 06:57:01;;;;;;;14.55;11.43;;;;;;;28.95;100.00;99335.22;5132597;28;20031;-78
2023/08/30 06:59:27;;;;;;;12.45;10.68;;;;;;;28.45;100.00;99317.38;5113977;28;20031;-79
2023/08/30 07:01:53;;;;;;;15.05;11.02;;;;;;;28.14;100.00;99361.03;5132542;28;20034;-81
2023/08/30 07:04:18;;;;;;;13.68;11.35;;;;;;;28.33;100.00;99341.50;5132185;28;20027;-75
2023/08/30 07:06:44;;;;;;;11.45;10.25;;;;;;;28.80;100.00;99350.88;5132159;28;20046;-78
2023/08/30 07:09:09;;;;;;;15.88;10.52;;;;;;;29.08;100.00;99359.81;5115002;28;20028;-78
2023/08/30 07:11:34;;;;;;;13.30;10.85;;;;;;;29.14;100.00;99355.72;5094042;28;20047;-78
2023/08/30 07:14:00;;;;;;;14.13;10.93;;;;;;;29.28;100.00;99333.97;5111238;28;20042;-75
2023/08/30 07:16:26;;;;;;;14.25;10.10;;;;;;;30.14;100.00;99380.63;5093329;28;20463;-77
2023/08/30 07:18:51;;;;;;;15.10;10.02;;;;;;;29.79;100.00;99403.16;5112202;28;20058;-78
2023/08/30 07:21:17;;;;;;;13.80;10.45;;;;;;;29.05;100.00;99357.56;5115566;28;20027;-74
2023/08/30 07:23:42;;;;;;;17.02;10.88;;;;;;;29.28;100.00;99351.53;5115141;28;20060;-76
2023/08/30 07:26:07;;;;;;;12.40;10.10;;;;;;;29.69;100.00;99397.31;5115040;28;20031;-77
2023/08/30 07:28:33;;;;;;;14.95;10.10;;;;;;;29.82;100.00;99397.53;5097209;28;20032;-75
2023/08/30 07:31:07;;;;;;;17.88;9.43;;;;;;;29.49;100.00;99375.22;5097219;28;20027;-77
2023/08/30 07:33:33;;;;;;;13.40;9.02;;;;;;;29.68;100.00;99395.66;5115064;28;20072;-77
2023/08/30 07:35:58;;;;;;;13.38;8.93;;;;;;;30.41;100.00;99438.53;5115118;28;20055;-78
2023/08/30 07:38:24;;;;;;;14.23;8.95;;;;;;;30.54;100.00;99445.75;5114536;28;20043;-74
2023/08/30 07:40:49;;;;;;;11.65;8.52;;;;;;;30.14;100.00;99464.56;5115188;28;20482;-77
2023/08/30 07:43:14;;;;;;;14.55;8.90;;;;;;;29.84;100.00;99503.88;5124999;27;20187;-76
2023/08/30 07:45:40;;;;;;;10.27;8.25;;;;;;;29.71;100.00;99438.09;5117401;27;20541;-76
2023/08/30 07:48:06;;;;;;;14.75;8.73;;;;;;;30.46;100.00;99480.81;5135390;27;20027;-76
2023/08/30 07:50:31;;;;;;;13.20;9.05;;;;;;;30.52;100.00;99464.34;5116868;27;20031;-75
2023/08/30 07:52:57;;;;;;;11.38;8.70;;;;;;;29.67;100.00;99439.41;5135181;27;20092;-75
2023/08/30 07:55:22;;;;;;;12.35;8.93;;;;;;;29.81;100.00;99443.13;5135098;27;20019;-73
2023/08/30 07:57:47;;;;;;;10.63;8.45;;;;;;;30.77;100.00;99489.28;5135178;27;20413;-76
2023/08/30 08:00:13;;;;;;;10.57;7.80;;;;;;;30.32;100.00;99476.38;5135106;27;20030;-75
2023/08/30 08:02:40;;;;;;;10.45;7.82;;;;;;;31.03;100.00;99501.94;5116177;27;20440;-76
2023/08/30 08:05:06;;;;;;;9.63;7.68;;;;;;;31.13;100.00;99510.31;5116659;27;20023;-77
2023/08/30 08:07:31;;;;;;;12.18;8.05;;;;;;;31.08;100.00;99543.41;5134800;27;20118;-76
2023/08/30 08:09:57;;;;;;;9.95;8.07;;;;;;;30.68;100.00;99590.13;5116277;27;20500;-76
2023/08/30 08:12:23;;;;;;;11.40;7.80;;;;;;;31.04;100.00;99495.66;5117430;27;20023;-77
2023/08/30 08:14:48;;;;;;;9.57;7.85;;;;;;;31.41;100.00;99607.72;5134951;27;20480;-78
2023/08/30 08:17:14;;;;;;;12.48;7.90;;;;;;;31.59;100.00;99611.53;5116280;27;20039;-76
2023/08/30 08:19:39;;;;;;;16.25;8.65;;;;;;;31.79;100.00;99589.91;5134655;27;20553;-76
2023/08/30 08:22:06;;;;;;;9.18;8.27;;;;;;;31.62;100.00;99599.84;5134587;27;20023;-76
2023/08/30 08:24:31;;;;;;;10.23;8.15;;;;;;;31.13;100.00;99611.97;5134625;27;20026;-75
2023/08/30 08:26:56;;;;;;;9.85;7.75;;;;;;;30.86;100.00;99571.44;5116561;27;20404;-76
2023/08/30 08:29:22;;;;;;;12.15;9.10;;;;;;;31.26;100.00;99567.44;5116139;27;20023;-76
2023/08/30 08:31:48;;;;;;;10.25;7.75;;;;;;;31.86;100.00;99630.22;5134292;27;20046;-75
2023/08/30 08:34:13;;;;;;;12.60;8.48;;;;;;;32.05;100.00;99638.34;5134278;27;20035;-76
2023/08/30 08:36:41;;;;;;;11.27;7.88;;;;;;;31.28;100.00;99666.16;5115864;27;20504;-77
2023/08/30 08:39:06;;;;;;;13.45;8.35;;;;;;;31.05;100.00;99593.69;5134322;27;20031;-77
2023/08/30 08:41:41;;;;;;;14.38;7.80;;;;;;;31.71;100.00;99592.66;5134663;27;20046;-78
2023/08/30 08:44:08;;;;;;;10.63;8.40;;;;;;;31.92;100.00;99659.25;5116306;27;20027;-77
2023/08/30 08:46:35;;;;;;;12.18;7.38;;;;;;;31.59;100.00;99616.00;5134183;27;20126;-78
2023/08/30 08:49:13;;;;;;;11.27;7.75;;;;;;;32.33;100.00;99675.22;5115962;27;20031;-76
2023/08/30 08:51:39;;;;;;;11.85;7.28;;;;;;;31.59;100.00;99679.13;5115347;27;20031;-73
2023/08/30 08:54:06;;;;;;;11.35;7.22;;;;;;;31.70;100.00;99638.34;5114847;27;20035;-73
2023/08/30 08:56:33;;;;;;;12.73;7.03;;;;;;;32.30;100.00;99646.66;5114835;27;20490;-72
2023/08/30 08:58:58;;;;;;;11.93;7.22;;;;;;;32.58;100.00;99644.06;5133362;27;20023;-74
2023/08/30 09:01:24;;;;;;;10.68;7.25;;;;;;;32.36;100.00;99699.38;5133209;27;20102;-74
2023/08/30 09:03:50;;;;;;;9.65;6.90;;;;;;;31.69;100.00;99710.38;5114705;27;20489;-74
2023/08/30 09:06:17;;;;;;;9.98;6.72;;;;;;;32.63;100.00;99699.59;5133121;27;20136;-73
2023/08/30 09:08:42;;;;;;;11.45;7.10;;;;;;;32.81;100.00;99692.84;5132801;27;20489;-73
2023/08/30 09:11:08;;;;;;;13.07;6.50;;;;;;;32.67;100.00;99701.66;4774311;27;9999712;-73
2023/08/30 09:13:33;;;;;;;7.82;6.43;;;;;;;33.04;100.00;99687.38;5128794;27;20091;-73
2023/08/30 09:15:59;;;;;;;9.95;6.63;;;;;;;32.67;100.00;99643.72;5129941;27;20114;-72
2023/08/30 09:18:27;;;;;;;10.45;6.50;;;;;;;32.77;100.00;99696.88;5110872;27;20390;-74
2023/08/30 09:21:11;;;;;;;9.85;6.35;;;;;;;32.05;100.00;99642.81;5128861;27;20035;-73
2023/08/30 09:23:38;;;;;;;7.93;7.03;;;;;;;32.47;100.00;99647.25;5129705;27;20037;-74
2023/08/30 09:26:04;;;;;;;10.00;6.80;;;;;;;33.46;100.00;99673.97;5130232;27;20034;-73
2023/08/30 09:28:31;;;;;;;10.35;6.70;;;;;;;32.97;100.00;99639.88;5130314;27;20473;-72
2023/08/30 09:31:01;;;;;;;24.23;11.02;;;;;;;33.75;100.00;99668.44;5129867;27;20042;-73
2023/08/30 09:33:32;;;;;;;11.32;6.80;;;;;;;33.76;100.00;99682.41;5128703;27;20026;-73
2023/08/30 09:35:58;;;;;;;14.45;6.90;;;;;;;32.82;100.00;99698.94;5110973;27;20421;-73
2023/08/30 09:38:23;;;;;;;9.02;7.32;;;;;;;32.57;100.00;99659.03;5129381;27;20031;-73
2023/08/30 09:40:49;;;;;;;11.07;7.05;;;;;;;32.87;100.00;99675.47;5132227;27;20044;-73
2023/08/30 09:43:18;;;;;;;13.38;9.93;;;;;;;32.47;100.00;99649.88;5144723;27;20034;-73
2023/08/30 09:45:44;;;;;;;10.13;6.45;;;;;;;33.09;100.00;99690.22;5116988;27;20035;-73
2023/08/30 09:48:10;;;;;;;9.55;6.47;;;;;;;33.68;100.00;99669.41;5132878;27;20028;-74
2023/08/30 09:50:36;;;;;;;11.73;6.43;;;;;;;33.45;100.00;99701.38;5132871;27;20053;-75
2023/08/30 09:53:09;;;;;;;10.35;6.70;;;;;;;33.21;100.00;99635.94;5132456;27;20506;-71
2023/08/30 09:55:35;;;;;;;8.43;6.32;;;;;;;32.30;100.00;99707.22;5114506;28;20035;-74
2023/08/30 09:58:04;;;;;;;10.60;6.40;;;;;;;33.51;100.00;99628.56;5132446;27;20478;-74
2023/08/30 10:00:29;;;;;;;12.13;6.45;;;;;;;32.84;100.00;99649.50;5132600;27;20084;-75
2023/08/30 10:02:57;;;;;;;11.32;6.43;;;;;;;32.00;100.00;99656.50;5132950;27;20023;-74
2023/08/30 10:05:23;;;;;;;11.73;6.65;;;;;;;32.42;100.00;99679.38;5132935;28;20054;-75
2023/08/30 10:07:50;;;;;;;11.90;6.80;;;;;;;33.31;100.00;99685.66;5132828;28;20059;-75
2023/08/30 10:10:16;;;;;;;6.93;6.07;;;;;;;33.93;100.00;99638.81;5132629;28;20050;-75
2023/08/30 10:12:46;;;;;;;9.77;6.40;;;;;;;33.00;100.00;99646.59;5132086;28;20073;-73
2023/08/30 10:15:11;;;;;;;10.33;6.40;;;;;;;33.22;100.00;99653.38;5132246;28;20573;-74
2023/08/30 10:17:40;;;;;;;7.95;6.63;;;;;;;31.85;100.00;99673.34;5113875;28;20023;-74
2023/08/30 10:20:06;;;;;;;11.70;6.72;;;;;;;31.86;100.00;99673.13;5132664;28;20481;-75
2023/08/30 10:22:36;;;;;;;8.13;6.50;;;;;;;32.52;100.00;99689.59;5114139;28;20038;-74
2023/08/30 10:25:10;;;;;;;10.90;6.78;;;;;;;32.10;100.00;99699.13;5132390;28;20055;-75
2023/08/30 10:27:39;;;;;;;10.75;6.85;;;;;;;32.25;100.00;99689.34;5114356;28;20484;-75
2023/08/30 10:30:07;;;;;;;10.95;6.38;;;;;;;33.18;100.00;99626.59;5132438;28;20489;-73
2023/08/30 10:32:39;;;;;;;11.10;6.72;;;;;;;33.48;100.00;99668.53;5114196;28;20027;-74
2023/08/30 10:35:05;;;;;;;11.55;6.35;;;;;;;33.10;100.00;99636.50;5132364;28;20126;-72
2023/08/30 10:37:30;;;;;;;9.20;6.70;;;;;;;33.37;100.00;99614.50;5113970;28;20454;-75
2023/08/30 10:40:03;;;;;;;9.48;7.00;;;;;;;34.19;100.00;99646.78;5131588;28;20519;-75
2023/08/30 10:42:29;;;;;;;12.70;6.95;;;;;;;33.62;100.00;99663.09;5132415;28;20091;-74
2023/08/30 10:45:00;;;;;;;10.38;7.00;;;;;;;34.24;100.00;99664.66;5131936;28;20489;-76
2023/08/30 10:47:30;;;;;;;10.93;6.15;;;;;;;33.82;100.00;99602.44;5132727;28;20113;-75
2023/08/30 10:49:57;;;;;;;8.52;6.20;;;;;;;34.36;100.00;99610.22;5132159;28;20552;-76
2023/08/30 10:52:24;;;;;;;10.70;6.63;;;;;;;34.47;100.00;99597.22;5131936;28;20089;-74
2023/08/30 10:54:50;;;;;;;12.77;6.78;;;;;;;34.46;100.00;99642.31;5136245;27;20028;-74
2023/08/30 10:57:19;;;;;;;7.63;6.43;;;;;;;34.83;100.00;99578.22;5136383;27;20041;-73
2023/08/30 11:00:09;;;;;;;8.25;6.50;;;;;;;34.00;100.00;99645.75;5135634;27;20050;-74
2023/08/30 11:02:36;;;;;;;9.60;6.75;;;;;;;34.22;100.00;99579.53;5136193;27;20064;-74
2023/08/30 11:05:06;;;;;;;9.95;6.05;;;;;;;34.09;100.00;99583.03;5117436;27;20400;-74
2023/08/30 11:07:31;;;;;;;11.55;6.53;;;;;;;35.33;100.00;99619.75;5117285;27;20538;-74
2023/08/30 11:09:58;;;;;;;11.52;7.53;;;;;;;34.84;100.00;99622.16;5105742;28;20059;-74
2023/08/30 11:12:23;;;;;;;7.60;6.53;;;;;;;34.39;100.00;99637.03;5130660;27;20060;-73
2023/08/30 11:14:50;;;;;;;10.70;7.35;;;;;;;34.02;100.00;99648.19;5135537;27;20035;-73